Погода Набушевона 2 недели

Минская область, Белоруссия

24 мая-06 июня
  • 24мая
    Сегодня
    +13°
    +26°
    Ясно и безоблачно
    ВремяПогодаТемператураВлажностьДавлениеВетер, м/сВероятность осадков
    00:00Ясно и безоблачно+17°C79 %754 мм1.8 м/с2 %
    03:00Практически безоблачно+15°C65 %755 мм2.0 м/с2 %
    06:00Ясно и безоблачно+14°C65 %756 мм2.0 м/с2 %
    09:00Ясно и безоблачно+18°C63 %756 мм2.9 м/с2 %
    12:00Ясно и безоблачно+23°C57 %757 мм3.2 м/с2 %
    15:00Ясно и безоблачно+25°C50 %756 мм4.1 м/с2 %
    18:00Практически безоблачно+24°C48 %756 мм3.8 м/с2 %
    21:00Ясно и безоблачно+21°C60 %756 мм2.0 м/с1 %
  • 25мая
    Суббота
    +11°
    +26°
    Облачно с прояснениями
    ВремяПогодаТемператураВлажностьДавлениеВетер, м/сВероятность осадков
    00:00Ясно и безоблачно+17°C60 %756 мм2.0 м/с2 %
    03:00Ясно и безоблачно+15°C65 %756 мм1.4 м/с2 %
    06:00Облачно с прояснениями+14°C68 %756 мм1.6 м/с1 %
    09:00Облачно с прояснениями+18°C64 %756 мм2.4 м/с2 %
    12:00Облачно с прояснениями+23°C56 %756 мм2.7 м/с8 %
    15:00Облачно с прояснениями+25°C49 %756 мм3.6 м/с29 %
    18:00Облачно с прояснениями+24°C43 %755 мм3.5 м/с16 %
    21:00Облачно с прояснениями+20°C52 %755 мм1.5 м/с7 %
  • 26мая
    Воскресенье
    +10°
    +25°
    Ясно и безоблачно
    ВремяПогодаТемператураВлажностьДавлениеВетер, м/сВероятность осадков
    00:00Облачно с прояснениями+15°C52 %755 мм1.2 м/с3 %
    03:00Облачно с прояснениями+13°C63 %755 мм0.6 м/с3 %
    06:00Небольшая облачность+12°C70 %755 мм0.7 м/с2 %
    09:00Облачно с прояснениями+18°C61 %756 мм0.9 м/с2 %
    12:00Ясно и безоблачно+23°C34 %756 мм2.4 м/с2 %
    15:00Ясно и безоблачно+24°C36 %756 мм2.2 м/с2 %
    18:00Ясно и безоблачно+24°C38 %755 мм2.5 м/с2 %
    21:00Ясно и безоблачно+19°C58 %755 мм0.7 м/с2 %
  • 27мая
    Понедельник
    +13°
    +26°
    Практически безоблачно
    ВремяПогодаТемператураВлажностьДавлениеВетер, м/сВероятность осадков
    00:00Ясно и безоблачно+14°C63 %755 мм0.6 м/с2 %
    03:00Ясно и безоблачно+12°C73 %755 мм0.0 м/с2 %
    06:00Практически безоблачно+12°C74 %756 мм0.7 м/с2 %
    09:00Практически безоблачно+19°C60 %756 мм0.9 м/с2 %
    12:00Облачно с прояснениями+24°C38 %756 мм2.3 м/с2 %
    15:00Практически безоблачно+25°C39 %755 мм2.5 м/с2 %
    18:00Облачно с прояснениями+25°C38 %754 мм2.0 м/с9 %
    21:00Небольшая облачность+20°C65 %754 мм0.7 м/с3 %
  • 28мая
    Вторник
    +14°
    +26°
    Практически безоблачно
    ВремяПогодаТемператураВлажностьДавлениеВетер, м/сВероятность осадков
    00:00Ясно и безоблачно+15°C77 %754 мм1.1 м/с2 %
    03:00Ясно и безоблачно+13°C83 %754 мм0.0 м/с2 %
    06:00Ясно и безоблачно+14°C78 %754 мм0.8 м/с2 %
    09:00Ясно и безоблачно+19°C63 %754 мм1.4 м/с2 %
    12:00Практически безоблачно+25°C34 %753 мм2.9 м/с5 %
    15:00Практически безоблачно+26°C33 %753 мм3.4 м/с3 %
    18:00Небольшая облачность+25°C39 %752 мм3.4 м/с12 %
    21:00Небольшая облачность+21°C51 %752 мм1.3 м/с5 %
Мы используем cookies
Соглашаюсь